sensor_id;sensor_type;location;lat;lon;timestamp;P1;durP1;ratioP1;P2;durP2;ratioP2
51692;SDS011;37777;53.066;21.638;2023-02-14T00:00:28;10.98;;;3.92;;
51692;SDS011;37777;53.066;21.638;2023-02-14T00:07:30;9.05;;;3.63;;
51692;SDS011;37777;53.066;21.638;2023-02-14T00:14:36;6.78;;;4.25;;
51692;SDS011;37777;53.066;21.638;2023-02-14T00:21:56;7.65;;;4.68;;
51692;SDS011;37777;53.066;21.638;2023-02-14T00:28:58;12.93;;;5.25;;
51692;SDS011;37777;53.066;21.638;2023-02-14T00:36:04;8.48;;;4.70;;
51692;SDS011;37777;53.066;21.638;2023-02-14T00:50:12;14.07;;;4.93;;
51692;SDS011;37777;53.066;21.638;2023-02-14T00:57:14;17.00;;;5.90;;
51692;SDS011;37777;53.066;21.638;2023-02-14T01:04:16;11.25;;;4.82;;
51692;SDS011;37777;53.066;21.638;2023-02-14T01:11:19;2.90;;;2.70;;
51692;SDS011;37777;53.066;21.638;2023-02-14T01:18:22;9.90;;;5.03;;
51692;SDS011;37777;53.066;21.638;2023-02-14T01:25:24;18.05;;;5.03;;
51692;SDS011;37777;53.066;21.638;2023-02-14T01:32:29;9.20;;;4.72;;
51692;SDS011;37777;53.066;21.638;2023-02-14T01:39:31;12.57;;;5.95;;
51692;SDS011;37777;53.066;21.638;2023-02-14T01:46:35;8.50;;;5.07;;
51692;SDS011;37777;53.066;21.638;2023-02-14T01:53:38;9.98;;;5.35;;
51692;SDS011;37777;53.066;21.638;2023-02-14T02:00:40;7.40;;;5.68;;
51692;SDS011;37777;53.066;21.638;2023-02-14T02:07:59;10.38;;;5.65;;
51692;SDS011;37777;53.066;21.638;2023-02-14T02:15:02;12.07;;;5.32;;
51692;SDS011;37777;53.066;21.638;2023-02-14T02:37:50;13.48;;;5.40;;
51692;SDS011;37777;53.066;21.638;2023-02-14T02:51:56;12.98;;;5.22;;
51692;SDS011;37777;53.066;21.638;2023-02-14T02:59:28;4.78;;;4.07;;
51692;SDS011;37777;53.066;21.638;2023-02-14T03:06:32;7.03;;;5.07;;
51692;SDS011;37777;53.066;21.638;2023-02-14T03:13:42;9.68;;;5.25;;
51692;SDS011;37777;53.066;21.638;2023-02-14T03:28:14;12.40;;;5.55;;
51692;SDS011;37777;53.066;21.638;2023-02-14T03:50:06;5.82;;;4.40;;
51692;SDS011;37777;53.066;21.638;2023-02-14T03:57:21;10.33;;;6.27;;
51692;SDS011;37777;53.066;21.638;2023-02-14T04:04:26;12.60;;;6.70;;
51692;SDS011;37777;53.066;21.638;2023-02-14T04:11:31;9.65;;;5.72;;
51692;SDS011;37777;53.066;21.638;2023-02-14T04:18:35;8.52;;;6.35;;
51692;SDS011;37777;53.066;21.638;2023-02-14T04:25:55;14.82;;;8.38;;
51692;SDS011;37777;53.066;21.638;2023-02-14T04:32:57;6.85;;;5.40;;
51692;SDS011;37777;53.066;21.638;2023-02-14T04:39:59;17.30;;;6.30;;
51692;SDS011;37777;53.066;21.638;2023-02-14T04:47:01;14.07;;;6.38;;
51692;SDS011;37777;53.066;21.638;2023-02-14T04:54:07;12.25;;;5.25;;
51692;SDS011;37777;53.066;21.638;2023-02-14T05:01:09;9.38;;;6.20;;
51692;SDS011;37777;53.066;21.638;2023-02-14T05:08:11;10.75;;;5.68;;
51692;SDS011;37777;53.066;21.638;2023-02-14T05:15:14;10.73;;;6.43;;
51692;SDS011;37777;53.066;21.638;2023-02-14T05:22:16;13.43;;;6.18;;
51692;SDS011;37777;53.066;21.638;2023-02-14T05:29:18;10.23;;;5.97;;
51692;SDS011;37777;53.066;21.638;2023-02-14T05:36:21;12.60;;;5.15;;
51692;SDS011;37777;53.066;21.638;2023-02-14T05:43:23;11.57;;;4.75;;
51692;SDS011;37777;53.066;21.638;2023-02-14T05:50:25;12.88;;;6.05;;
51692;SDS011;37777;53.066;21.638;2023-02-14T05:57:27;17.67;;;6.45;;
51692;SDS011;37777;53.066;21.638;2023-02-14T06:04:29;17.48;;;7.25;;
51692;SDS011;37777;53.066;21.638;2023-02-14T06:11:31;10.60;;;6.82;;
51692;SDS011;37777;53.066;21.638;2023-02-14T06:18:33;19.30;;;7.53;;
51692;SDS011;37777;53.066;21.638;2023-02-14T06:25:35;14.07;;;6.93;;
51692;SDS011;37777;53.066;21.638;2023-02-14T06:32:37;14.82;;;6.30;;
51692;SDS011;37777;53.066;21.638;2023-02-14T06:39:39;13.15;;;6.68;;
51692;SDS011;37777;53.066;21.638;2023-02-14T06:46:42;12.13;;;7.43;;
51692;SDS011;37777;53.066;21.638;2023-02-14T06:53:44;16.05;;;7.47;;
51692;SDS011;37777;53.066;21.638;2023-02-14T07:00:46;5.45;;;4.60;;
51692;SDS011;37777;53.066;21.638;2023-02-14T07:07:48;13.77;;;7.25;;
51692;SDS011;37777;53.066;21.638;2023-02-14T07:14:50;16.38;;;8.07;;
51692;SDS011;37777;53.066;21.638;2023-02-14T07:21:52;12.85;;;6.35;;
51692;SDS011;37777;53.066;21.638;2023-02-14T07:28:54;12.10;;;6.75;;
51692;SDS011;37777;53.066;21.638;2023-02-14T07:35:56;9.88;;;6.22;;
51692;SDS011;37777;53.066;21.638;2023-02-14T07:42:58;10.15;;;6.13;;
51692;SDS011;37777;53.066;21.638;2023-02-14T07:50:01;11.95;;;7.03;;
51692;SDS011;37777;53.066;21.638;2023-02-14T07:57:04;9.68;;;6.70;;
51692;SDS011;37777;53.066;21.638;2023-02-14T08:04:06;13.30;;;6.47;;
51692;SDS011;37777;53.066;21.638;2023-02-14T08:11:09;15.90;;;6.82;;
51692;SDS011;37777;53.066;21.638;2023-02-14T08:18:11;13.18;;;6.40;;
51692;SDS011;37777;53.066;21.638;2023-02-14T08:25:13;9.48;;;6.18;;
51692;SDS011;37777;53.066;21.638;2023-02-14T08:32:15;13.07;;;7.30;;
51692;SDS011;37777;53.066;21.638;2023-02-14T08:39:21;14.57;;;6.97;;
51692;SDS011;37777;53.066;21.638;2023-02-14T08:46:23;13.52;;;6.88;;
51692;SDS011;37777;53.066;21.638;2023-02-14T08:53:25;8.88;;;6.35;;
51692;SDS011;37777;53.066;21.638;2023-02-14T09:00:28;14.20;;;6.35;;
51692;SDS011;37777;53.066;21.638;2023-02-14T09:07:30;10.90;;;6.93;;
51692;SDS011;37777;53.066;21.638;2023-02-14T09:14:39;11.38;;;6.72;;
51692;SDS011;37777;53.066;21.638;2023-02-14T09:21:46;9.55;;;6.30;;
51692;SDS011;37777;53.066;21.638;2023-02-14T09:28:49;18.65;;;7.18;;
51692;SDS011;37777;53.066;21.638;2023-02-14T09:35:56;12.07;;;6.70;;
51692;SDS011;37777;53.066;21.638;2023-02-14T09:43:22;15.48;;;7.20;;
51692;SDS011;37777;53.066;21.638;2023-02-14T09:50:40;8.60;;;6.05;;
51692;SDS011;37777;53.066;21.638;2023-02-14T09:57:56;11.30;;;6.38;;
51692;SDS011;37777;53.066;21.638;2023-02-14T10:05:28;13.00;;;5.88;;
51692;SDS011;37777;53.066;21.638;2023-02-14T10:12:42;9.35;;;6.35;;
51692;SDS011;37777;53.066;21.638;2023-02-14T10:20:14;13.65;;;5.97;;
51692;SDS011;37777;53.066;21.638;2023-02-14T10:34:55;10.52;;;6.85;;
51692;SDS011;37777;53.066;21.638;2023-02-14T10:42:05;13.10;;;6.57;;
51692;SDS011;37777;53.066;21.638;2023-02-14T10:49:32;14.38;;;7.03;;
51692;SDS011;37777;53.066;21.638;2023-02-14T10:57:02;16.08;;;6.78;;
51692;SDS011;37777;53.066;21.638;2023-02-14T11:04:25;11.60;;;5.18;;
51692;SDS011;37777;53.066;21.638;2023-02-14T11:11:36;15.40;;;6.80;;
51692;SDS011;37777;53.066;21.638;2023-02-14T11:19:06;12.48;;;6.22;;
51692;SDS011;37777;53.066;21.638;2023-02-14T11:40:41;14.52;;;5.75;;
51692;SDS011;37777;53.066;21.638;2023-02-14T11:47:44;9.80;;;4.90;;
51692;SDS011;37777;53.066;21.638;2023-02-14T11:54:52;12.27;;;6.13;;
51692;SDS011;37777;53.066;21.638;2023-02-14T12:02:01;8.13;;;5.57;;
51692;SDS011;37777;53.066;21.638;2023-02-14T12:09:33;11.43;;;6.70;;
51692;SDS011;37777;53.066;21.638;2023-02-14T12:16:46;11.25;;;6.10;;
51692;SDS011;37777;53.066;21.638;2023-02-14T12:31:45;7.40;;;4.97;;
51692;SDS011;37777;53.066;21.638;2023-02-14T12:54:29;9.80;;;5.78;;
51692;SDS011;37777;53.066;21.638;2023-02-14T13:16:48;8.25;;;4.75;;
51692;SDS011;37777;53.066;21.638;2023-02-14T13:31:24;8.73;;;5.68;;
51692;SDS011;37777;53.066;21.638;2023-02-14T13:38:40;26.30;;;7.50;;
51692;SDS011;37777;53.066;21.638;2023-02-14T13:52:47;11.77;;;5.53;;
51692;SDS011;37777;53.066;21.638;2023-02-14T14:00:19;7.30;;;4.95;;
51692;SDS011;37777;53.066;21.638;2023-02-14T14:07:24;10.45;;;6.57;;
51692;SDS011;37777;53.066;21.638;2023-02-14T14:14:30;13.60;;;8.82;;
51692;SDS011;37777;53.066;21.638;2023-02-14T14:22:22;14.32;;;6.32;;
51692;SDS011;37777;53.066;21.638;2023-02-14T14:29:08;15.75;;;8.55;;
51692;SDS011;37777;53.066;21.638;2023-02-14T14:36:20;13.43;;;6.78;;
51692;SDS011;37777;53.066;21.638;2023-02-14T14:43:33;17.90;;;6.78;;
51692;SDS011;37777;53.066;21.638;2023-02-14T14:50:35;12.15;;;6.40;;
51692;SDS011;37777;53.066;21.638;2023-02-14T14:57:38;10.90;;;5.63;;
51692;SDS011;37777;53.066;21.638;2023-02-14T15:04:40;11.70;;;7.05;;
51692;SDS011;37777;53.066;21.638;2023-02-14T15:11:43;14.93;;;6.88;;
51692;SDS011;37777;53.066;21.638;2023-02-14T15:19:08;11.77;;;7.55;;
51692;SDS011;37777;53.066;21.638;2023-02-14T15:26:30;10.60;;;6.32;;
51692;SDS011;37777;53.066;21.638;2023-02-14T15:33:33;9.65;;;6.22;;
51692;SDS011;37777;53.066;21.638;2023-02-14T15:40:36;10.30;;;6.60;;
51692;SDS011;37777;53.066;21.638;2023-02-14T15:47:39;33.85;;;12.82;;
51692;SDS011;37777;53.066;21.638;2023-02-14T15:54:43;19.42;;;8.48;;
51692;SDS011;37777;53.066;21.638;2023-02-14T16:01:57;24.83;;;8.70;;
51692;SDS011;37777;53.066;21.638;2023-02-14T16:09:03;17.80;;;7.20;;
51692;SDS011;37777;53.066;21.638;2023-02-14T16:16:08;16.90;;;7.45;;
51692;SDS011;37777;53.066;21.638;2023-02-14T16:23:17;13.73;;;8.30;;
51692;SDS011;37777;53.066;21.638;2023-02-14T16:30:23;19.77;;;8.02;;
51692;SDS011;37777;53.066;21.638;2023-02-14T16:37:30;25.80;;;9.20;;
51692;SDS011;37777;53.066;21.638;2023-02-14T16:44:34;18.67;;;8.63;;
51692;SDS011;37777;53.066;21.638;2023-02-14T16:51:38;21.95;;;9.65;;
51692;SDS011;37777;53.066;21.638;2023-02-14T16:58:44;18.58;;;9.45;;
51692;SDS011;37777;53.066;21.638;2023-02-14T17:05:50;18.75;;;9.65;;
51692;SDS011;37777;53.066;21.638;2023-02-14T17:12:55;22.58;;;10.23;;
51692;SDS011;37777;53.066;21.638;2023-02-14T17:19:59;24.25;;;10.30;;
51692;SDS011;37777;53.066;21.638;2023-02-14T17:27:02;24.77;;;10.93;;
51692;SDS011;37777;53.066;21.638;2023-02-14T17:34:07;20.50;;;11.20;;
51692;SDS011;37777;53.066;21.638;2023-02-14T17:41:15;26.02;;;10.65;;
51692;SDS011;37777;53.066;21.638;2023-02-14T17:48:26;33.03;;;11.68;;
51692;SDS011;37777;53.066;21.638;2023-02-14T17:55:31;24.27;;;10.85;;
51692;SDS011;37777;53.066;21.638;2023-02-14T18:02:37;28.17;;;11.27;;
51692;SDS011;37777;53.066;21.638;2023-02-14T18:09:41;25.60;;;10.77;;
51692;SDS011;37777;53.066;21.638;2023-02-14T18:16:46;24.05;;;11.98;;
51692;SDS011;37777;53.066;21.638;2023-02-14T18:23:48;30.08;;;12.30;;
51692;SDS011;37777;53.066;21.638;2023-02-14T18:30:52;37.63;;;13.52;;
51692;SDS011;37777;53.066;21.638;2023-02-14T18:37:58;23.05;;;10.82;;
51692;SDS011;37777;53.066;21.638;2023-02-14T18:45:01;20.20;;;9.95;;
51692;SDS011;37777;53.066;21.638;2023-02-14T18:52:04;28.60;;;10.55;;
51692;SDS011;37777;53.066;21.638;2023-02-14T18:59:08;33.13;;;13.63;;
51692;SDS011;37777;53.066;21.638;2023-02-14T19:06:12;20.60;;;9.65;;
51692;SDS011;37777;53.066;21.638;2023-02-14T19:13:16;17.77;;;9.48;;
51692;SDS011;37777;53.066;21.638;2023-02-14T19:20:21;32.33;;;12.13;;
51692;SDS011;37777;53.066;21.638;2023-02-14T19:27:24;22.55;;;11.48;;
51692;SDS011;37777;53.066;21.638;2023-02-14T19:34:27;21.95;;;11.32;;
51692;SDS011;37777;53.066;21.638;2023-02-14T19:41:31;29.77;;;11.80;;
51692;SDS011;37777;53.066;21.638;2023-02-14T19:48:38;29.20;;;11.88;;
51692;SDS011;37777;53.066;21.638;2023-02-14T19:55:41;19.17;;;9.07;;
51692;SDS011;37777;53.066;21.638;2023-02-14T20:02:44;22.20;;;11.73;;
51692;SDS011;37777;53.066;21.638;2023-02-14T20:09:49;21.40;;;9.77;;
51692;SDS011;37777;53.066;21.638;2023-02-14T20:16:58;25.02;;;11.77;;
51692;SDS011;37777;53.066;21.638;2023-02-14T20:24:04;23.42;;;11.43;;
51692;SDS011;37777;53.066;21.638;2023-02-14T20:31:10;25.10;;;11.82;;
51692;SDS011;37777;53.066;21.638;2023-02-14T20:38:15;28.50;;;10.55;;
51692;SDS011;37777;53.066;21.638;2023-02-14T20:45:18;23.50;;;10.88;;
51692;SDS011;37777;53.066;21.638;2023-02-14T20:52:22;21.63;;;11.15;;
51692;SDS011;37777;53.066;21.638;2023-02-14T20:59:28;20.48;;;9.75;;
51692;SDS011;37777;53.066;21.638;2023-02-14T21:06:31;24.33;;;11.35;;
51692;SDS011;37777;53.066;21.638;2023-02-14T21:13:41;21.27;;;10.13;;
51692;SDS011;37777;53.066;21.638;2023-02-14T21:20:45;24.77;;;11.98;;
51692;SDS011;37777;53.066;21.638;2023-02-14T21:27:48;26.27;;;11.65;;
51692;SDS011;37777;53.066;21.638;2023-02-14T21:34:52;27.77;;;10.45;;
51692;SDS011;37777;53.066;21.638;2023-02-14T21:41:55;16.58;;;9.48;;
51692;SDS011;37777;53.066;21.638;2023-02-14T21:49:00;21.15;;;8.18;;
51692;SDS011;37777;53.066;21.638;2023-02-14T21:56:22;19.60;;;9.23;;
51692;SDS011;37777;53.066;21.638;2023-02-14T22:03:25;19.02;;;8.75;;
51692;SDS011;37777;53.066;21.638;2023-02-14T22:10:28;12.98;;;7.47;;
51692;SDS011;37777;53.066;21.638;2023-02-14T22:17:31;22.75;;;8.20;;
51692;SDS011;37777;53.066;21.638;2023-02-14T22:24:34;27.05;;;7.97;;
51692;SDS011;37777;53.066;21.638;2023-02-14T22:31:37;17.92;;;7.88;;
51692;SDS011;37777;53.066;21.638;2023-02-14T22:38:41;20.20;;;7.97;;
51692;SDS011;37777;53.066;21.638;2023-02-14T22:45:43;18.50;;;8.05;;
51692;SDS011;37777;53.066;21.638;2023-02-14T22:52:45;18.45;;;8.80;;
51692;SDS011;37777;53.066;21.638;2023-02-14T22:59:47;15.80;;;8.60;;
51692;SDS011;37777;53.066;21.638;2023-02-14T23:06:50;20.10;;;8.68;;
51692;SDS011;37777;53.066;21.638;2023-02-14T23:13:53;15.43;;;7.90;;
51692;SDS011;37777;53.066;21.638;2023-02-14T23:21:15;16.95;;;7.80;;
51692;SDS011;37777;53.066;21.638;2023-02-14T23:28:35;14.40;;;7.60;;
51692;SDS011;37777;53.066;21.638;2023-02-14T23:35:37;17.10;;;7.30;;
51692;SDS011;37777;53.066;21.638;2023-02-14T23:42:39;22.70;;;8.80;;
51692;SDS011;37777;53.066;21.638;2023-02-14T23:49:41;16.98;;;8.02;;
51692;SDS011;37777;53.066;21.638;2023-02-14T23:56:44;16.92;;;8.00;;
